createdAt,value
2023-02-06T00:04:21.015Z,-4.05
2023-02-06T00:09:19.842Z,-4.27
2023-02-06T00:14:18.568Z,-4.30
2023-02-06T00:19:17.291Z,-4.03
2023-02-06T00:24:16.055Z,-4.51
2023-02-06T00:29:14.811Z,-4.01
2023-02-06T00:34:13.622Z,-4.19
2023-02-06T00:39:12.328Z,-4.28
2023-02-06T00:44:11.245Z,-3.80
2023-02-06T00:49:10.077Z,-4.11
2023-02-06T00:54:09.641Z,-3.93
2023-02-06T00:59:08.741Z,-3.73
2023-02-06T01:04:07.778Z,-3.92
2023-02-06T01:09:09.573Z,-3.97
2023-02-06T01:14:08.298Z,-3.91
2023-02-06T01:19:07.822Z,-4.34
2023-02-06T01:24:06.667Z,-3.62
2023-02-06T01:29:05.488Z,-3.97
2023-02-06T01:34:04.416Z,-4.19
2023-02-06T01:39:05.809Z,-3.96
2023-02-06T01:44:11.854Z,-3.64
2023-02-06T01:49:20.307Z,-3.28
2023-02-06T01:54:19.316Z,-3.08
2023-02-06T01:59:18.522Z,-3.07
2023-02-06T02:04:21.485Z,-3.03
2023-02-06T02:09:20.978Z,-3.08
2023-02-06T02:14:19.721Z,-2.94
2023-02-06T02:19:41.010Z,-3.30
2023-02-06T02:25:04.183Z,-3.51
2023-02-06T02:30:23.195Z,-3.67
2023-02-06T02:35:37.775Z,-3.44
2023-02-06T02:40:49.005Z,-3.60
2023-02-06T02:46:01.109Z,-3.51
2023-02-06T02:51:01.205Z,-3.38
2023-02-06T02:56:00.224Z,-3.52
2023-02-06T03:01:07.320Z,-3.77
2023-02-06T03:06:25.671Z,-3.88
2023-02-06T03:11:26.584Z,-3.27
2023-02-06T03:16:34.115Z,-3.72
2023-02-06T03:21:36.234Z,-3.58
2023-02-06T03:26:37.226Z,-3.08
2023-02-06T03:31:44.594Z,-3.02
2023-02-06T03:36:43.712Z,-3.10
2023-02-06T03:41:45.563Z,-3.37
2023-02-06T03:46:45.219Z,-3.17
2023-02-06T03:51:48.688Z,-3.18
2023-02-06T03:56:51.915Z,-3.30
2023-02-06T04:01:55.649Z,-2.94
2023-02-06T04:06:57.568Z,-2.98
2023-02-06T04:11:56.407Z,-3.50
2023-02-06T04:16:55.559Z,-3.06
2023-02-06T04:21:54.310Z,-3.43
2023-02-06T04:26:53.373Z,-3.16
2023-02-06T04:31:52.263Z,-2.92
2023-02-06T04:36:51.019Z,-2.93
2023-02-06T04:41:49.838Z,-2.98
2023-02-06T04:46:49.110Z,-3.08
2023-02-06T04:51:47.975Z,-3.03
2023-02-06T04:56:47.116Z,-2.96
2023-02-06T05:01:45.908Z,-2.62
2023-02-06T05:06:44.643Z,-2.58
2023-02-06T05:11:43.534Z,-2.88
2023-02-06T05:16:42.424Z,-2.31
2023-02-06T05:21:41.389Z,-2.41
2023-02-06T05:26:40.150Z,-1.92
2023-02-06T05:31:39.133Z,7.96
2023-02-06T05:36:38.069Z,8.33
2023-02-06T05:41:36.976Z,3.23
2023-02-06T05:46:35.809Z,0.05
2023-02-06T05:51:34.587Z,-0.14
2023-02-06T05:56:33.383Z,-1.23
2023-02-06T06:01:32.172Z,-1.50
2023-02-06T06:06:30.984Z,-1.12
2023-02-06T06:11:30.514Z,-1.67
2023-02-06T06:16:30.450Z,-1.73
2023-02-06T06:21:29.613Z,-1.61
2023-02-06T06:26:28.403Z,-1.83
2023-02-06T06:31:27.288Z,-1.70
2023-02-06T06:36:26.187Z,-1.76
2023-02-06T06:41:25.024Z,-1.71
2023-02-06T06:46:24.337Z,-1.46
2023-02-06T06:51:23.715Z,-1.51
2023-02-06T06:56:22.847Z,-1.60
2023-02-06T07:01:21.588Z,-1.42
2023-02-06T07:06:20.385Z,-1.50
2023-02-06T07:11:19.384Z,-2.08
2023-02-06T07:16:18.191Z,-1.78
2023-02-06T07:21:19.979Z,-1.39
2023-02-06T07:26:18.741Z,-1.45
2023-02-06T07:31:17.672Z,-1.39
2023-02-06T07:36:18.461Z,-1.48
2023-02-06T07:41:18.057Z,-1.22
2023-02-06T07:46:16.951Z,-1.48
2023-02-06T07:51:15.934Z,-0.89
2023-02-06T07:56:18.013Z,-0.94
2023-02-06T08:01:16.827Z,-1.00
2023-02-06T08:06:16.792Z,-1.27
2023-02-06T08:11:18.798Z,-0.92
2023-02-06T08:16:20.729Z,-1.16
2023-02-06T08:21:22.528Z,-1.43
2023-02-06T08:26:22.100Z,-1.12
2023-02-06T08:31:29.782Z,-0.61
2023-02-06T08:36:31.631Z,-1.31
2023-02-06T08:41:33.080Z,-0.93
2023-02-06T08:46:33.428Z,-0.46
2023-02-06T08:51:33.907Z,-0.52
2023-02-06T08:56:34.894Z,-0.63
2023-02-06T09:01:36.288Z,-0.82
2023-02-06T09:06:36.968Z,-0.57
2023-02-06T09:11:36.366Z,-0.57
2023-02-06T09:16:37.532Z,-0.46
2023-02-06T09:21:36.641Z,-0.76
2023-02-06T09:26:53.502Z,-0.37
2023-02-06T09:31:57.483Z,0.03
2023-02-06T09:36:57.763Z,-0.01
2023-02-06T09:42:03.716Z,0.06
2023-02-06T09:47:38.030Z,-0.03
2023-02-06T09:52:42.994Z,0.62
2023-02-06T09:58:13.722Z,0.46
2023-02-06T10:03:32.708Z,0.53
2023-02-06T10:08:43.585Z,0.78
2023-02-06T10:13:50.200Z,0.86
2023-02-06T10:18:54.574Z,1.16
2023-02-06T10:24:34.105Z,0.69
2023-02-06T10:29:36.463Z,1.31
2023-02-06T10:34:57.258Z,1.20
2023-02-06T10:40:13.471Z,0.59
2023-02-06T10:45:20.066Z,1.15
2023-02-06T10:50:39.660Z,0.98
2023-02-06T10:55:49.170Z,1.02
2023-02-06T11:00:50.308Z,1.22
2023-02-06T11:05:50.121Z,0.74
2023-02-06T11:10:49.522Z,1.04
2023-02-06T11:16:08.852Z,0.64
2023-02-06T11:21:10.378Z,1.04
2023-02-06T11:26:15.895Z,1.65
2023-02-06T11:31:14.904Z,1.27
2023-02-06T11:36:31.775Z,1.88
2023-02-06T11:41:31.870Z,2.08
2023-02-06T11:46:35.323Z,1.72
2023-02-06T11:51:48.574Z,2.64
2023-02-06T11:57:24.129Z,2.36
2023-02-06T12:02:35.612Z,2.60
2023-02-06T12:07:43.066Z,1.84
2023-02-06T12:12:47.264Z,2.41
2023-02-06T12:17:55.518Z,2.28
2023-02-06T12:22:59.065Z,2.18
2023-02-06T12:28:09.365Z,2.63
2023-02-06T12:33:22.955Z,2.64
2023-02-06T12:38:40.717Z,2.84
2023-02-06T12:43:42.304Z,2.82
2023-02-06T12:49:05.703Z,2.57
2023-02-06T12:54:28.387Z,2.21
2023-02-06T12:59:59.287Z,2.50
2023-02-06T13:05:03.908Z,2.40
2023-02-06T13:10:06.473Z,2.53
2023-02-06T13:15:08.053Z,2.37
2023-02-06T13:20:11.779Z,2.33
2023-02-06T13:25:25.804Z,2.24
2023-02-06T13:30:30.568Z,2.29
2023-02-06T13:35:30.667Z,2.48
2023-02-06T13:40:35.374Z,2.34
2023-02-06T13:45:49.287Z,2.22
2023-02-06T13:51:33.086Z,2.67
2023-02-06T13:56:50.106Z,2.86
2023-02-06T14:01:49.389Z,2.78
2023-02-06T14:07:17.510Z,2.71
2023-02-06T14:12:31.303Z,2.68
2023-02-06T14:17:40.642Z,2.83
2023-02-06T14:22:50.812Z,2.85
2023-02-06T14:28:04.824Z,2.60
2023-02-06T14:33:24.567Z,2.43
2023-02-06T14:38:33.787Z,2.29
2023-02-06T14:43:40.540Z,2.03
2023-02-06T14:48:48.084Z,2.03
2023-02-06T14:53:53.830Z,1.85
2023-02-06T14:58:52.534Z,1.80
2023-02-06T15:03:52.917Z,1.73
2023-02-06T15:08:51.923Z,1.45
2023-02-06T15:13:55.892Z,1.84
2023-02-06T15:19:19.632Z,1.86
2023-02-06T15:24:33.323Z,1.71
2023-02-06T15:29:32.144Z,2.08
2023-02-06T15:34:31.110Z,1.77
2023-02-06T15:39:30.055Z,1.83
2023-02-06T15:44:34.817Z,1.83
2023-02-06T15:49:45.384Z,1.81
2023-02-06T15:54:58.082Z,1.63
2023-02-06T15:59:57.105Z,6.74
2023-02-06T16:04:56.079Z,6.85
2023-02-06T16:09:59.720Z,3.71
2023-02-06T16:15:01.314Z,2.46
2023-02-06T16:20:24.213Z,2.28
2023-02-06T16:25:29.523Z,1.97
2023-02-06T16:30:31.044Z,1.41
2023-02-06T16:35:30.432Z,1.66
2023-02-06T16:40:29.583Z,1.53
2023-02-06T16:45:28.425Z,1.48
2023-02-06T16:50:27.230Z,1.32
2023-02-06T16:55:27.224Z,1.39
2023-02-06T17:00:31.370Z,1.30
2023-02-06T17:05:31.537Z,1.20
2023-02-06T17:10:30.478Z,1.16
2023-02-06T17:15:29.346Z,0.98
2023-02-06T17:20:36.410Z,0.76
2023-02-06T17:25:35.640Z,0.64
2023-02-06T17:30:36.758Z,0.63
2023-02-06T17:35:36.918Z,0.63
2023-02-06T17:40:37.205Z,0.89
2023-02-06T17:45:39.171Z,0.32
2023-02-06T17:50:40.704Z,0.57
2023-02-06T17:55:40.274Z,0.69
2023-02-06T18:00:39.498Z,0.66
2023-02-06T18:05:39.186Z,0.36
2023-02-06T18:10:39.521Z,0.49
2023-02-06T18:15:38.626Z,0.06
2023-02-06T18:20:37.709Z,0.10
2023-02-06T18:25:42.514Z,-0.88
2023-02-06T18:30:42.347Z,-0.77
2023-02-06T18:35:44.410Z,-0.38
2023-02-06T18:40:47.794Z,-0.53
2023-02-06T18:45:46.715Z,-0.97
2023-02-06T18:50:45.526Z,-1.38
2023-02-06T18:55:44.353Z,-0.90
2023-02-06T19:00:43.382Z,-1.03
2023-02-06T19:05:42.147Z,-1.04
2023-02-06T19:10:41.072Z,-1.11
2023-02-06T19:15:40.009Z,-1.17
2023-02-06T19:20:41.866Z,-1.46
2023-02-06T19:25:41.266Z,-1.35
2023-02-06T19:30:40.420Z,-2.11
2023-02-06T19:35:40.918Z,-2.26
2023-02-06T19:40:39.753Z,-1.62
2023-02-06T19:45:38.598Z,-1.70
2023-02-06T19:50:38.804Z,-1.87
2023-02-06T19:55:37.961Z,-2.07
2023-02-06T20:00:37.477Z,-1.46
2023-02-06T20:05:36.672Z,-2.06
2023-02-06T20:10:38.062Z,-1.86
2023-02-06T20:15:40.627Z,-2.24
2023-02-06T20:20:39.566Z,-2.17
2023-02-06T20:25:39.606Z,-2.62
2023-02-06T20:30:38.698Z,-2.17
2023-02-06T20:35:44.120Z,-2.23
2023-02-06T20:40:50.625Z,-2.30
2023-02-06T20:45:49.590Z,-2.58
2023-02-06T20:50:48.497Z,-3.00
2023-02-06T20:55:47.280Z,-3.13
2023-02-06T21:00:46.792Z,-2.77
2023-02-06T21:05:55.929Z,-0.49
2023-02-06T21:10:54.762Z,6.71
2023-02-06T21:15:56.626Z,2.88
2023-02-06T21:20:56.793Z,0.50
2023-02-06T21:25:56.009Z,-1.83
2023-02-06T21:31:22.700Z,-2.36
2023-02-06T21:36:21.631Z,-2.10
2023-02-06T21:41:20.386Z,-2.35
2023-02-06T21:46:19.870Z,-2.38
2023-02-06T21:51:18.968Z,-2.27
2023-02-06T21:56:20.889Z,-2.41
2023-02-06T22:01:25.573Z,-2.44
2023-02-06T22:06:24.460Z,-2.50
2023-02-06T22:11:26.385Z,-2.28
2023-02-06T22:16:25.622Z,-2.65
2023-02-06T22:21:26.598Z,-2.75
2023-02-06T22:26:26.601Z,-2.88
2023-02-06T22:31:28.650Z,-2.69
2023-02-06T22:36:31.149Z,-2.70
2023-02-06T22:41:30.402Z,-2.80
2023-02-06T22:46:32.403Z,-2.82
2023-02-06T22:51:31.605Z,-2.73
2023-02-06T22:56:36.010Z,-2.47
2023-02-06T23:01:45.324Z,-3.32
2023-02-06T23:06:44.857Z,-3.54
2023-02-06T23:11:43.875Z,-2.98
2023-02-06T23:16:43.274Z,-3.77
2023-02-06T23:21:43.297Z,-3.73
2023-02-06T23:26:44.279Z,-4.11
2023-02-06T23:31:44.833Z,-3.63
2023-02-06T23:36:46.191Z,-3.80
2023-02-06T23:41:45.008Z,-3.66
2023-02-06T23:46:44.084Z,-4.10
2023-02-06T23:51:42.939Z,-3.72
2023-02-06T23:56:41.791Z,-3.84
